Time;durP1;ratioP1;P1;durP2;ratioP2;P2;SDS_P1;SDS_P2;PMS_P1;PMS_P2;Temp;Humidity;BMP_temperature;BMP_pressure;BME280_temperature;BME280_humidity;BME280_pressure;Samples;Min_cycle;Max_cycle;Signal;HPM_P1;HPM_P2
2022/07/21 00:00:27;;;;;;;31.35;27.85;;;;;;;21.18;100.00;100489.00;5032978;28;20106;-77
2022/07/21 00:02:55;;;;;;;36.28;28.70;;;;;;;21.15;100.00;100491.09;5028197;28;20054;-76
2022/07/21 00:05:23;;;;;;;36.13;28.42;;;;;;;21.17;100.00;100492.69;5034515;28;20481;-75
2022/07/21 00:07:51;;;;;;;35.38;27.45;;;;;;;21.09;100.00;100467.44;5026212;28;20061;-76
2022/07/21 00:10:20;;;;;;;38.03;29.40;;;;;;;21.14;100.00;100487.56;5028839;28;20071;-76
2022/07/21 00:12:47;;;;;;;39.25;31.85;;;;;;;21.12;100.00;100497.63;5028604;28;20115;-76
2022/07/21 00:15:15;;;;;;;40.05;33.38;;;;;;;21.10;100.00;100483.44;5025413;28;20052;-74
2022/07/21 00:17:43;;;;;;;42.13;34.17;;;;;;;21.10;100.00;100479.88;5026029;28;20096;-75
2022/07/21 00:20:11;;;;;;;44.92;35.95;;;;;;;21.13;100.00;100498.47;5032290;28;20058;-75
2022/07/21 00:22:38;;;;;;;51.13;39.88;;;;;;;20.97;100.00;100491.75;5039907;28;20128;-75
2022/07/21 00:25:06;;;;;;;46.05;39.55;;;;;;;21.07;100.00;100525.97;5044275;28;20045;-76
2022/07/21 00:27:33;;;;;;;50.53;41.35;;;;;;;21.07;100.00;100529.50;5035377;28;20049;-75
2022/07/21 00:30:00;;;;;;;49.90;40.33;;;;;;;21.06;100.00;100527.78;5031831;28;20042;-76
2022/07/21 00:32:27;;;;;;;52.95;41.60;;;;;;;21.02;100.00;100529.06;5033340;28;20057;-77
2022/07/21 00:35:01;;;;;;;48.95;42.13;;;;;;;20.99;100.00;100532.00;5031105;28;20042;-76
2022/07/21 00:37:29;;;;;;;48.58;39.60;;;;;;;20.98;100.00;100522.22;5022771;28;20045;-76
2022/07/21 00:39:55;;;;;;;50.40;41.05;;;;;;;20.94;100.00;100524.31;5024044;28;20120;-75
2022/07/21 00:42:24;;;;;;;53.75;40.42;;;;;;;20.94;100.00;100528.84;5026666;28;20118;-75
2022/07/21 00:44:51;;;;;;;44.17;35.85;;;;;;;20.88;100.00;100514.13;5033074;28;20110;-75
2022/07/21 00:47:23;;;;;;;44.35;33.88;;;;;;;20.99;100.00;100537.38;5025907;28;20064;-75
2022/07/21 00:49:50;;;;;;;39.25;31.83;;;;;;;21.04;100.00;100540.53;5028491;28;20065;-74
2022/07/21 00:52:17;;;;;;;36.80;30.10;;;;;;;20.94;100.00;100518.09;5027236;28;20548;-74
2022/07/21 00:54:44;;;;;;;34.35;29.20;;;;;;;21.03;100.00;100517.28;5028562;28;20083;-75
2022/07/21 00:57:12;;;;;;;34.58;28.33;;;;;;;21.24;100.00;100547.75;5026496;28;20391;-74
2022/07/21 00:59:40;;;;;;;32.30;28.38;;;;;;;21.30;100.00;100535.56;5029658;28;20045;-76
2022/07/21 01:02:08;;;;;;;31.23;27.67;;;;;;;21.43;100.00;100555.00;5028600;28;20092;-78
2022/07/21 01:04:35;;;;;;;32.92;27.98;;;;;;;21.49;100.00;100543.69;5029355;28;20592;-73
2022/07/21 01:07:04;;;;;;;32.58;26.75;;;;;;;21.48;100.00;100541.97;5032969;28;20045;-77
2022/07/21 01:09:33;;;;;;;30.30;27.08;;;;;;;21.53;100.00;100546.97;5031237;28;20052;-75
2022/07/21 01:12:00;;;;;;;28.85;25.67;;;;;;;21.54;100.00;100540.59;5033760;28;20478;-75
2022/07/21 01:14:27;;;;;;;34.40;26.55;;;;;;;21.56;100.00;100541.31;5025782;28;20050;-75
2022/07/21 01:16:54;;;;;;;29.67;26.35;;;;;;;21.54;100.00;100533.34;5027700;28;20061;-75
2022/07/21 01:19:22;;;;;;;35.42;28.67;;;;;;;21.52;100.00;100524.56;5019762;28;20530;-74
2022/07/21 01:21:51;;;;;;;36.28;29.85;;;;;;;21.40;100.00;100535.59;5033980;28;20741;-75
2022/07/21 01:24:18;;;;;;;34.03;28.95;;;;;;;21.28;100.00;100526.75;5027541;28;20058;-76
2022/07/21 01:26:47;;;;;;;36.35;28.67;;;;;;;21.41;100.00;100538.13;5024946;28;20183;-73
2022/07/21 01:29:15;;;;;;;33.60;27.60;;;;;;;21.34;100.00;100520.81;5033878;28;20063;-75
2022/07/21 01:31:44;;;;;;;36.67;28.90;;;;;;;21.37;100.00;100517.88;5029491;28;20045;-76
2022/07/21 01:34:11;;;;;;;35.03;27.95;;;;;;;21.52;100.00;100529.94;5026871;28;20096;-75
2022/07/21 01:36:39;;;;;;;32.42;28.35;;;;;;;21.52;100.00;100540.72;5031344;28;20060;-74
2022/07/21 01:41:52;;;;;;;34.17;28.70;;;;;;;21.21;100.00;100533.69;5029907;28;20057;-75
2022/07/21 01:44:20;;;;;;;31.40;28.00;;;;;;;21.26;100.00;100537.66;5024750;28;20490;-74
2022/07/21 01:46:51;;;;;;;30.25;26.83;;;;;;;21.16;100.00;100509.81;5026856;28;20045;-74
2022/07/21 01:49:19;;;;;;;31.17;27.85;;;;;;;21.26;100.00;100515.25;5025027;28;20050;-74
2022/07/21 01:51:47;;;;;;;32.30;27.20;;;;;;;21.43;100.00;100519.13;5028555;28;20485;-74
2022/07/21 01:54:13;;;;;;;29.27;26.05;;;;;;;21.56;100.00;100533.22;5027295;28;20056;-76
2022/07/21 01:56:48;;;;;;;27.50;24.60;;;;;;;21.62;100.00;100538.03;5031358;28;20349;-75
2022/07/21 01:59:15;;;;;;;29.60;23.58;;;;;;;21.61;100.00;100547.13;5026777;28;20108;-74
2022/07/21 02:01:41;;;;;;;27.30;22.65;;;;;;;21.57;100.00;100556.47;5028880;28;20049;-73
2022/07/21 02:04:08;;;;;;;27.10;23.42;;;;;;;21.40;100.00;100527.50;5032902;28;20037;-74
2022/07/21 02:06:35;;;;;;;24.75;22.08;;;;;;;21.35;100.00;100528.78;5031330;28;20049;-73
2022/07/21 02:09:02;;;;;;;26.58;22.02;;;;;;;21.50;100.00;100563.41;5033162;28;20045;-72
2022/07/21 02:11:29;;;;;;;24.10;20.45;;;;;;;21.47;100.00;100569.06;5037371;28;20110;-73
2022/07/21 02:13:56;;;;;;;25.27;20.98;;;;;;;21.51;100.00;100560.56;5032716;28;20064;-73
2022/07/21 02:16:23;;;;;;;23.95;21.08;;;;;;;21.49;100.00;100561.69;5030879;28;20132;-73
2022/07/21 02:18:49;;;;;;;27.08;22.02;;;;;;;21.43;100.00;100559.53;5028637;28;20049;-73
2022/07/21 02:21:17;;;;;;;19.40;16.52;;;;;;;21.05;100.00;100552.16;5030401;28;20048;-71
2022/07/21 02:23:43;;;;;;;20.98;18.67;;;;;;;20.89;100.00;100556.19;5030523;28;20049;-73
2022/07/21 02:26:10;;;;;;;16.65;14.85;;;;;;;20.63;100.00;100562.97;5029629;28;20104;-73
2022/07/21 02:28:38;;;;;;;15.68;13.57;;;;;;;20.43;100.00;100578.16;5033607;28;20152;-74
2022/07/21 02:31:06;;;;;;;16.83;12.60;;;;;;;20.43;100.00;100582.69;5034408;28;20085;-72
2022/07/21 02:33:33;;;;;;;17.83;12.90;;;;;;;20.36;100.00;100585.03;5032197;28;20045;-72
2022/07/21 02:36:00;;;;;;;13.13;11.60;;;;;;;20.33;100.00;100582.56;5028052;28;20049;-73
2022/07/21 02:38:26;;;;;;;12.55;11.32;;;;;;;20.22;100.00;100570.03;5034659;28;20648;-74
2022/07/21 02:40:53;;;;;;;15.00;11.32;;;;;;;20.09;100.00;100587.31;5025124;28;20107;-72
2022/07/21 02:43:23;;;;;;;12.18;10.88;;;;;;;19.82;100.00;100575.19;5029518;28;20057;-72
2022/07/21 02:45:50;;;;;;;11.60;10.45;;;;;;;19.77;100.00;100595.38;5031239;28;20045;-71
2022/07/21 02:48:18;;;;;;;12.90;11.52;;;;;;;19.69;100.00;100592.44;5029153;28;20041;-71
2022/07/21 02:50:44;;;;;;;15.02;11.57;;;;;;;19.72;100.00;100601.09;5024312;28;20497;-72
2022/07/21 02:53:14;;;;;;;13.68;11.52;;;;;;;19.62;100.00;100594.78;5031613;28;20053;-71
2022/07/21 02:55:43;;;;;;;12.55;10.55;;;;;;;19.66;100.00;100598.09;5031056;28;20073;-72
2022/07/21 02:58:22;;;;;;;12.02;10.82;;;;;;;19.66;100.00;100598.09;5030628;28;20053;-72
2022/07/21 03:00:49;;;;;;;13.88;10.77;;;;;;;19.72;100.00;100603.78;5027349;28;20041;-72
2022/07/21 03:03:17;;;;;;;11.95;10.75;;;;;;;19.73;100.00;100610.03;5031105;28;20064;-72
2022/07/21 03:05:44;;;;;;;12.05;10.63;;;;;;;19.71;100.00;100602.09;5032717;28;20112;-72
2022/07/21 03:08:11;;;;;;;11.82;10.60;;;;;;;19.68;100.00;100607.69;5039749;28;20073;-72
2022/07/21 03:10:39;;;;;;;12.18;10.38;;;;;;;19.67;100.00;100615.91;5035412;28;20764;-73
2022/07/21 03:13:06;;;;;;;12.77;9.55;;;;;;;19.65;100.00;100618.72;5030993;28;20042;-73
2022/07/21 03:15:33;;;;;;;10.95;8.80;;;;;;;19.64;100.00;100616.16;5027815;28;20077;-72
2022/07/21 03:18:00;;;;;;;14.82;8.85;;;;;;;19.70;99.45;100616.50;5031652;28;20080;-72
2022/07/21 03:20:33;;;;;;;9.55;8.55;;;;;;;19.68;98.87;100618.44;5032703;28;20466;-72
2022/07/21 03:23:00;;;;;;;11.25;8.75;;;;;;;19.78;99.81;100632.84;5023922;28;20100;-72
2022/07/21 03:25:27;;;;;;;8.90;7.78;;;;;;;19.84;97.52;100644.91;5031637;28;20119;-73
2022/07/21 03:27:55;;;;;;;8.95;8.00;;;;;;;19.84;97.42;100629.66;5042337;28;20461;-71
2022/07/21 03:30:23;;;;;;;9.50;7.88;;;;;;;20.02;97.36;100635.34;5029763;28;20088;-70
2022/07/21 03:32:50;;;;;;;9.82;8.30;;;;;;;20.15;95.83;100635.19;5029817;28;20053;-70
2022/07/21 03:35:18;;;;;;;9.90;7.95;;;;;;;20.23;94.91;100647.03;5028956;28;20048;-70
2022/07/21 03:37:51;;;;;;;10.70;8.20;;;;;;;20.24;93.53;100653.25;5022389;28;20064;-72
2022/07/21 03:40:22;;;;;;;9.57;8.05;;;;;;;20.04;92.81;100614.56;5021924;28;20045;-70
2022/07/21 03:42:55;;;;;;;8.95;7.68;;;;;;;20.23;93.26;100646.19;5034679;28;20083;-70
2022/07/21 03:45:23;;;;;;;8.43;7.60;;;;;;;20.25;92.38;100646.91;5026772;28;20081;-71
2022/07/21 03:47:50;;;;;;;8.77;6.90;;;;;;;20.28;90.77;100655.56;5038921;28;20132;-73
2022/07/21 03:50:17;;;;;;;8.10;6.63;;;;;;;20.30;88.81;100658.16;5027596;28;20045;-70
2022/07/21 03:52:45;;;;;;;12.10;6.95;;;;;;;20.35;88.43;100663.97;5031267;28;20482;-71
2022/07/21 03:55:17;;;;;;;10.38;7.40;;;;;;;20.27;88.33;100651.19;5030375;28;20049;-72
2022/07/21 03:57:49;;;;;;;8.80;7.30;;;;;;;20.32;88.87;100658.84;5020247;28;20555;-72
2022/07/21 04:00:29;;;;;;;7.85;7.03;;;;;;;20.17;89.24;100644.84;5031340;28;20048;-71
2022/07/21 04:02:57;;;;;;;8.70;6.63;;;;;;;20.19;88.71;100661.69;5026314;28;20457;-72
2022/07/21 04:05:26;;;;;;;7.40;6.50;;;;;;;20.22;88.55;100655.22;5030539;28;20049;-71
2022/07/21 04:07:54;;;;;;;6.80;6.00;;;;;;;20.19;86.45;100642.88;5025332;28;20394;-71
2022/07/21 04:10:26;;;;;;;6.82;6.13;;;;;;;20.28;85.38;100673.56;5036233;28;20045;-71
2022/07/21 04:12:55;;;;;;;8.93;5.90;;;;;;;20.28;84.73;100674.41;5024713;28;20140;-71
2022/07/21 04:15:22;;;;;;;6.10;5.50;;;;;;;20.26;85.10;100678.19;5026486;28;20061;-71
2022/07/21 04:17:49;;;;;;;6.47;5.88;;;;;;;20.26;85.25;100673.66;5024637;28;20049;-72
2022/07/21 04:24:03;;;;;;;8.00;6.50;;;;;;;20.10;85.98;100657.09;5028092;28;20417;-72
2022/07/21 04:26:29;;;;;;;7.20;6.30;;;;;;;20.19;86.55;100671.59;5025126;28;20084;-71
2022/07/21 04:28:56;;;;;;;8.27;6.57;;;;;;;20.19;87.06;100671.59;5028423;28;20088;-72
2022/07/21 04:31:23;;;;;;;7.40;6.70;;;;;;;20.19;87.74;100666.22;5026793;28;20436;-72
2022/07/21 04:33:49;;;;;;;10.63;6.53;;;;;;;20.13;87.86;100664.91;5025218;28;20405;-73
2022/07/21 04:36:16;;;;;;;7.60;6.80;;;;;;;20.18;88.81;100680.66;5028719;28;20049;-73
2022/07/21 04:38:43;;;;;;;10.48;6.57;;;;;;;20.07;88.54;100668.09;5026216;28;20103;-73
2022/07/21 04:41:10;;;;;;;7.95;7.15;;;;;;;20.13;88.71;100672.97;5025843;28;20084;-71
2022/07/21 04:43:36;;;;;;;7.57;6.88;;;;;;;20.20;89.25;100695.69;5028863;28;20053;-72
2022/07/21 04:46:03;;;;;;;8.13;7.30;;;;;;;20.13;89.96;100672.13;5025670;28;20056;-72
2022/07/21 04:48:30;;;;;;;8.05;7.25;;;;;;;20.19;91.27;100693.97;5025212;28;20103;-72
2022/07/21 04:50:56;;;;;;;14.25;8.07;;;;;;;20.17;91.69;100692.38;5025854;28;20065;-70
2022/07/21 04:53:23;;;;;;;8.73;7.93;;;;;;;20.14;92.17;100689.97;5024072;28;20508;-71
2022/07/21 04:55:50;;;;;;;9.30;7.80;;;;;;;20.20;92.24;100694.81;5028564;28;20107;-73
2022/07/21 04:58:16;;;;;;;10.45;8.13;;;;;;;20.27;90.62;100696.03;5021215;28;20042;-72
2022/07/21 05:00:43;;;;;;;10.75;8.20;;;;;;;20.26;91.16;100689.81;5020805;28;20057;-71
2022/07/21 05:03:12;;;;;;;10.63;7.95;;;;;;;20.33;90.87;100703.59;5028040;28;20049;-71
2022/07/21 05:05:39;;;;;;;9.85;8.70;;;;;;;20.24;89.91;100690.91;5025822;28;20485;-72
2022/07/21 05:08:06;;;;;;;13.27;8.43;;;;;;;20.33;89.24;100707.13;5022137;28;20054;-72
2022/07/21 05:10:33;;;;;;;9.23;8.32;;;;;;;20.35;89.04;100715.06;5025627;28;20548;-72
2022/07/21 05:12:59;;;;;;;9.23;8.18;;;;;;;20.32;89.09;100699.19;5026011;28;20049;-72
2022/07/21 05:15:26;;;;;;;10.90;8.55;;;;;;;20.43;89.43;100709.09;5017372;28;20128;-72
2022/07/21 05:17:53;;;;;;;10.90;8.13;;;;;;;20.43;88.53;100704.59;5018826;28;20076;-73
2022/07/21 05:20:19;;;;;;;9.65;8.13;;;;;;;20.48;88.67;100712.25;5025363;28;20049;-72
2022/07/21 05:22:46;;;;;;;10.40;8.20;;;;;;;20.46;87.61;100690.03;5028019;28;20033;-72
2022/07/21 05:25:13;;;;;;;11.05;7.93;;;;;;;20.62;86.95;100695.81;5025981;28;20042;-72
2022/07/21 05:27:39;;;;;;;9.20;8.30;;;;;;;20.81;85.97;100706.72;5021792;28;20081;-71
2022/07/21 05:30:07;;;;;;;9.00;7.07;;;;;;;20.96;84.02;100704.56;5023980;28;20057;-71
2022/07/21 05:32:33;;;;;;;9.68;8.02;;;;;;;21.00;83.52;100695.25;5024003;28;20061;-71
2022/07/21 05:35:00;;;;;;;9.43;7.60;;;;;;;21.06;81.03;100699.25;5029262;28;20045;-72
2022/07/21 05:37:27;;;;;;;10.05;8.07;;;;;;;21.10;81.07;100695.31;5024362;28;20506;-71
2022/07/21 05:39:54;;;;;;;11.90;8.27;;;;;;;21.06;80.70;100702.81;5026032;28;20045;-72
2022/07/21 05:42:20;;;;;;;10.70;7.97;;;;;;;20.97;81.14;100706.28;5022221;28;20533;-73
2022/07/21 05:44:47;;;;;;;13.50;8.82;;;;;;;20.85;80.56;100683.09;5025914;28;20100;-71
2022/07/21 05:47:14;;;;;;;11.35;8.63;;;;;;;20.93;80.19;100694.94;5025273;28;20119;-73
2022/07/21 05:49:41;;;;;;;9.80;8.10;;;;;;;20.68;81.17;100673.75;5031403;28;20050;-72
2022/07/21 05:52:07;;;;;;;9.98;8.23;;;;;;;20.71;81.17;100683.44;5024802;28;20049;-73
2022/07/21 05:54:34;;;;;;;12.52;8.48;;;;;;;20.82;81.71;100704.88;5025851;28;20058;-75
2022/07/21 05:57:03;;;;;;;9.35;8.20;;;;;;;20.80;82.38;100710.41;5013839;28;20052;-70
2022/07/21 05:59:30;;;;;;;9.45;8.23;;;;;;;20.87;82.44;100714.28;5020921;28;20116;-71
2022/07/21 06:01:56;;;;;;;11.30;8.68;;;;;;;20.82;82.67;100699.50;5020969;28;20401;-71
2022/07/21 06:04:23;;;;;;;10.25;9.15;;;;;;;20.78;82.79;100711.53;5017058;28;20046;-71
2022/07/21 06:06:52;;;;;;;12.07;9.40;;;;;;;20.75;83.45;100734.19;5014816;28;20046;-71
2022/07/21 06:09:19;;;;;;;11.20;9.27;;;;;;;20.77;83.69;100731.38;5017093;28;20139;-72
2022/07/21 06:11:46;;;;;;;10.52;9.00;;;;;;;20.84;83.46;100737.91;5014723;28;20045;-71
2022/07/21 06:14:12;;;;;;;9.77;8.77;;;;;;;20.84;83.83;100729.84;5017833;28;20046;-72
2022/07/21 06:16:39;;;;;;;9.30;8.27;;;;;;;21.13;82.38;100755.16;5020168;28;20057;-74
2022/07/21 06:19:09;;;;;;;10.70;8.15;;;;;;;21.42;81.28;100749.13;5025534;28;20106;-72
2022/07/21 06:21:36;;;;;;;10.55;8.50;;;;;;;21.66;78.84;100729.00;5027694;28;20545;-73
2022/07/21 06:24:09;;;;;;;10.70;8.27;;;;;;;21.71;78.75;100733.97;5015309;28;20037;-73
2022/07/21 06:26:38;;;;;;;9.10;8.20;;;;;;;21.82;79.52;100744.66;5028727;28;20057;-72
2022/07/21 06:29:06;;;;;;;10.38;7.75;;;;;;;22.00;79.41;100744.91;5022520;28;20115;-73
2022/07/21 06:31:33;;;;;;;10.82;8.32;;;;;;;22.21;77.70;100745.66;5023379;28;20465;-73
2022/07/21 06:34:00;;;;;;;9.70;7.93;;;;;;;22.54;74.46;100744.44;5023247;28;20172;-73
2022/07/21 06:36:27;;;;;;;8.95;8.05;;;;;;;22.66;72.28;100745.19;5034436;28;20048;-72
2022/07/21 06:38:54;;;;;;;8.68;7.68;;;;;;;22.67;70.67;100749.56;5014030;28;20061;-74
2022/07/21 06:41:21;;;;;;;9.32;7.60;;;;;;;22.80;71.63;100717.78;5027581;28;20579;-72
2022/07/21 06:43:48;;;;;;;11.50;8.38;;;;;;;23.19;68.18;100729.41;5017877;28;20288;-72
2022/07/21 06:46:15;;;;;;;8.80;7.78;;;;;;;23.37;68.15;100730.34;5026929;28;20064;-73
2022/07/21 06:48:42;;;;;;;9.18;7.50;;;;;;;23.51;66.79;100744.41;5024742;28;20484;-73
2022/07/21 06:51:08;;;;;;;8.52;7.60;;;;;;;23.10;67.19;100719.47;5023882;28;20095;-73
2022/07/21 06:53:35;;;;;;;9.15;7.40;;;;;;;22.72;68.29;100737.34;5040380;28;20061;-73
2022/07/21 06:56:02;;;;;;;11.13;7.22;;;;;;;22.49;69.01;100735.09;5029175;28;20397;-72
2022/07/21 06:58:32;;;;;;;9.20;7.70;;;;;;;22.51;69.63;100747.41;5022414;28;20084;-72
2022/07/21 07:01:06;;;;;;;9.77;8.02;;;;;;;22.30;71.10;100765.56;5025897;28;20567;-74
2022/07/21 07:03:33;;;;;;;9.10;7.82;;;;;;;22.23;72.02;100745.53;5023466;28;20045;-73
2022/07/21 07:06:01;;;;;;;10.88;8.00;;;;;;;22.44;71.71;100759.78;5034916;28;20062;-72
2022/07/21 07:08:28;;;;;;;9.63;8.23;;;;;;;22.39;71.22;100757.50;5022666;28;20038;-71
2022/07/21 07:10:55;;;;;;;10.52;8.25;;;;;;;22.44;71.43;100753.53;5025437;28;20068;-71
2022/07/21 07:13:22;;;;;;;8.43;7.45;;;;;;;22.75;71.13;100752.44;5025592;28;20478;-71
2022/07/21 07:16:09;;;;;;;10.10;7.70;;;;;;;23.09;70.13;100760.97;5020682;28;20145;-79
2022/07/21 07:18:37;;;;;;;9.25;8.02;;;;;;;23.36;67.35;100750.28;5025629;28;20052;-72
2022/07/21 07:21:05;;;;;;;10.50;7.45;;;;;;;23.73;67.20;100774.69;5026719;28;20052;-71
2022/07/21 07:23:37;;;;;;;8.73;7.07;;;;;;;24.25;64.69;100772.31;5024252;28;20076;-74
2022/07/21 07:26:04;;;;;;;10.43;7.38;;;;;;;24.85;62.07;100767.25;5028505;28;20045;-73
2022/07/21 07:28:31;;;;;;;8.43;7.63;;;;;;;24.77;62.01;100757.16;5025421;28;20049;-71
2022/07/21 07:30:57;;;;;;;8.95;7.13;;;;;;;24.31;60.82;100779.00;5019575;28;20364;-72
2022/07/21 07:33:25;;;;;;;9.48;6.72;;;;;;;23.96;64.02;100777.00;5022680;28;20049;-71
2022/07/21 07:35:52;;;;;;;7.47;6.72;;;;;;;23.77;63.80;100781.47;5024596;28;20053;-72
2022/07/21 07:38:18;;;;;;;8.77;6.65;;;;;;;23.91;62.92;100763.94;5018654;28;20505;-72
2022/07/21 07:40:45;;;;;;;7.55;6.28;;;;;;;24.41;62.61;100785.19;5029460;28;20045;-71
2022/07/21 07:43:12;;;;;;;7.85;7.05;;;;;;;24.21;61.71;100786.31;5028775;28;20672;-72
2022/07/21 07:45:39;;;;;;;11.05;7.38;;;;;;;23.65;64.61;100779.97;5030568;28;20096;-70
2022/07/21 07:48:06;;;;;;;9.60;7.63;;;;;;;23.23;66.54;100771.34;5023150;28;20079;-74
2022/07/21 07:50:32;;;;;;;10.98;7.65;;;;;;;22.90;67.46;100769.94;5030372;28;20115;-72
2022/07/21 07:52:59;;;;;;;8.13;7.38;;;;;;;22.64;68.45;100760.66;5021907;28;20472;-72
2022/07/21 07:55:26;;;;;;;10.07;7.50;;;;;;;22.62;68.22;100781.53;5021948;28;20431;-72
2022/07/21 07:57:52;;;;;;;11.55;7.43;;;;;;;23.07;68.37;100773.78;5020241;28;20045;-71
2022/07/21 08:00:19;;;;;;;8.75;7.15;;;;;;;23.88;66.54;100775.06;5023959;28;20064;-72
2022/07/21 08:03:07;;;;;;;8.23;7.22;;;;;;;24.54;62.33;100777.59;5028023;28;20498;-72
2022/07/21 08:05:33;;;;;;;10.63;7.22;;;;;;;25.07;60.06;100776.78;5027480;28;20557;-72
2022/07/21 08:08:00;;;;;;;8.57;7.05;;;;;;;25.52;58.48;100765.75;5021403;28;20356;-72
2022/07/21 08:10:27;;;;;;;9.88;7.30;;;;;;;25.82;56.83;100775.28;5020553;28;20057;-73
2022/07/21 08:13:15;;;;;;;8.13;5.85;;;;;;;26.17;54.79;100774.28;5022801;28;20065;-74
2022/07/21 08:15:43;;;;;;;6.68;5.97;;;;;;;26.26;52.00;100780.63;5021631;28;20547;-71
2022/07/21 08:18:10;;;;;;;7.65;5.70;;;;;;;25.92;53.97;100786.91;5027035;28;20080;-73
2022/07/21 08:20:38;;;;;;;7.20;5.78;;;;;;;25.66;54.29;100778.75;5019053;28;20154;-72
2022/07/21 08:23:05;;;;;;;6.68;5.97;;;;;;;25.48;55.14;100761.69;5028782;28;20076;-72
2022/07/21 08:25:33;;;;;;;7.90;6.10;;;;;;;25.14;55.20;100778.72;5026696;28;20748;-71
2022/07/21 08:28:00;;;;;;;5.72;5.18;;;;;;;25.15;55.84;100760.59;5020991;28;20084;-70
2022/07/21 08:30:27;;;;;;;11.93;6.38;;;;;;;25.99;54.42;100777.09;5026593;28;20049;-71
2022/07/21 08:32:58;;;;;;;14.90;6.00;;;;;;;26.52;52.72;100763.25;5022398;28;20045;-72
2022/07/21 08:35:25;;;;;;;9.90;5.95;;;;;;;26.24;52.69;100769.06;5025165;28;20408;-72
2022/07/21 08:38:04;;;;;;;7.00;6.20;;;;;;;26.37;53.31;100769.47;5027000;28;20486;-71
2022/07/21 08:40:35;;;;;;;8.15;6.30;;;;;;;26.65;51.35;100772.75;5021067;28;20121;-74
2022/07/21 08:43:02;;;;;;;6.75;6.10;;;;;;;26.59;51.62;100781.59;5027425;28;20128;-72
2022/07/21 08:45:30;;;;;;;8.60;5.57;;;;;;;26.31;52.42;100773.69;5027334;28;20063;-73
2022/07/21 08:47:59;;;;;;;6.28;5.25;;;;;;;26.11;51.95;100775.81;5020182;28;20119;-70
2022/07/21 08:50:30;;;;;;;7.93;5.37;;;;;;;25.46;53.44;100780.81;5019935;28;20042;-73
2022/07/21 08:52:56;;;;;;;;;;;;;;;25.15;55.99;100782.28;5027169;28;20518;-72
2022/07/21 08:55:36;;;;;;;6.95;5.93;;;;;;;24.31;58.00;100784.41;5024523;28;19928;-72
2022/07/21 08:58:03;;;;;;;9.93;6.78;;;;;;;23.66;60.65;100746.50;5028255;28;20050;-73
2022/07/21 09:00:34;;;;;;;7.05;6.35;;;;;;;23.52;62.01;100751.53;5023398;28;20045;-74
2022/07/21 09:03:29;;;;;;;8.45;6.68;;;;;;;23.97;60.91;100767.88;5015203;28;20042;-71
2022/07/21 09:06:15;;;;;;;8.60;5.95;;;;;;;23.90;60.31;100778.47;5020619;28;20053;-71
2022/07/21 09:08:46;;;;;;;7.72;6.07;;;;;;;24.00;60.46;100762.19;5018649;28;20037;-72
2022/07/21 09:11:23;;;;;;;6.97;6.18;;;;;;;24.01;59.72;100770.16;5020789;28;20481;-73
2022/07/21 09:14:11;;;;;;;7.47;6.25;;;;;;;24.04;59.34;100769.00;5015221;28;20056;-71
2022/07/21 09:16:54;;;;;;;6.97;5.68;;;;;;;24.00;59.50;100773.00;5033138;28;20145;-71
2022/07/21 09:19:31;;;;;;;6.88;5.70;;;;;;;23.99;59.45;100772.16;5026098;28;20047;-73
2022/07/21 09:22:00;;;;;;;6.22;5.53;;;;;;;24.34;58.45;100757.06;5020303;28;20048;-72
2022/07/21 09:24:37;;;;;;;10.18;6.18;;;;;;;24.58;57.26;100741.06;5027430;28;20057;-71
2022/07/21 09:27:18;;;;;;;6.88;5.30;;;;;;;24.99;55.04;100755.88;5023851;28;20041;-71
2022/07/21 09:29:56;;;;;;;9.40;5.63;;;;;;;25.16;53.78;100752.31;5029755;28;20042;-73
2022/07/21 09:32:36;;;;;;;8.32;5.60;;;;;;;25.14;53.88;100748.03;5032239;28;20042;-73
2022/07/21 09:35:04;;;;;;;;;;;;;;;25.10;54.39;100754.78;5025735;28;20045;-72
2022/07/21 09:37:33;;;;;;;;;;;;;;;25.29;52.14;100751.88;5024728;28;20412;-73
2022/07/21 09:40:07;;;;;;;6.50;4.97;;;;;;;25.24;51.93;100753.38;5025647;28;19927;-72
2022/07/21 09:42:36;;;;;;;5.15;4.60;;;;;;;25.05;52.34;100746.25;5026706;28;20120;-72
2022/07/21 09:45:11;;;;;;;4.28;3.88;;;;;;;24.99;49.86;100741.50;5027219;28;20088;-73
2022/07/21 09:47:40;;;;;;;4.45;3.80;;;;;;;24.97;50.91;100751.63;5028264;28;20458;-72
2022/07/21 09:50:12;;;;;;;5.95;4.57;;;;;;;25.00;51.58;100748.63;5029257;28;20498;-73
2022/07/21 09:52:57;;;;;;;7.03;5.13;;;;;;;25.02;52.46;100749.31;5031456;28;20051;-72
2022/07/21 09:55:24;;;;;;;6.40;4.93;;;;;;;25.20;52.82;100744.69;5026671;28;20038;-73
2022/07/21 09:57:51;;;;;;;8.18;5.15;;;;;;;25.15;52.08;100750.59;5027250;28;20041;-73
2022/07/21 10:00:19;;;;;;;5.28;4.78;;;;;;;24.96;52.33;100737.22;5022292;28;20084;-73
2022/07/21 10:02:48;;;;;;;5.60;4.68;;;;;;;25.07;52.18;100746.97;5019723;28;20494;-72
2022/07/21 10:05:18;;;;;;;4.85;4.45;;;;;;;25.35;53.10;100740.41;5023695;28;20434;-73
2022/07/21 10:07:48;;;;;;;5.13;4.63;;;;;;;25.53;52.20;100743.06;5021904;28;20065;-72
2022/07/21 10:10:16;;;;;;;6.23;5.27;;;;;;;25.75;51.56;100728.13;5028550;28;20057;-72
2022/07/21 10:12:48;;;;;;;5.13;4.63;;;;;;;25.83;51.34;100722.75;5025427;28;20567;-72
2022/07/21 10:15:15;;;;;;;8.35;4.57;;;;;;;26.12;50.47;100727.81;5023378;28;20445;-73
2022/07/21 10:17:45;;;;;;;5.28;3.60;;;;;;;26.68;46.50;100729.81;5020835;28;20099;-72
2022/07/21 10:20:29;;;;;;;4.22;3.80;;;;;;;27.21;44.73;100715.78;5023913;28;20504;-74
2022/07/21 10:22:59;;;;;;;4.22;3.75;;;;;;;27.54;44.67;100722.00;5024996;28;20080;-72
2022/07/21 10:25:26;;;;;;;5.30;3.83;;;;;;;27.65;43.12;100711.78;5031013;28;20113;-71
2022/07/21 10:28:18;;;;;;;5.68;4.22;;;;;;;27.99;42.94;100733.28;5028430;28;20085;-73
2022/07/21 10:30:50;;;;;;;6.57;3.90;;;;;;;27.70;43.71;100721.13;5028027;28;20075;-72
2022/07/21 10:33:20;;;;;;;5.28;4.03;;;;;;;27.78;44.62;100729.25;5034015;28;20049;-71
2022/07/21 10:35:48;;;;;;;4.72;3.80;;;;;;;28.05;43.56;100732.56;5032244;28;20111;-73
2022/07/21 10:38:32;;;;;;;4.70;3.75;;;;;;;27.97;42.47;100722.56;5018026;28;20502;-72
2022/07/21 10:41:01;;;;;;;5.47;3.70;;;;;;;28.21;42.61;100719.75;5029316;28;20045;-71
2022/07/21 10:43:28;;;;;;;4.57;3.70;;;;;;;28.34;42.19;100712.84;5031506;28;20045;-73
2022/07/21 10:45:56;;;;;;;3.95;3.20;;;;;;;27.97;42.84;100689.03;5028547;28;20044;-72
2022/07/21 10:48:39;;;;;;;5.03;3.58;;;;;;;27.80;43.20;100693.72;5034186;28;20064;-73
2022/07/21 10:51:15;;;;;;;4.65;4.00;;;;;;;27.25;44.35;100699.94;5022664;28;20431;-72
2022/07/21 10:53:44;;;;;;;4.88;3.75;;;;;;;26.86;45.22;100700.63;5029204;28;20092;-72
2022/07/21 10:56:27;;;;;;;5.13;4.03;;;;;;;27.15;45.26;100680.25;5027665;28;20092;-74
2022/07/21 10:58:53;;;;;;;4.30;3.90;;;;;;;27.49;45.05;100694.47;5029246;28;20630;-74
2022/07/21 11:01:24;;;;;;;4.00;3.60;;;;;;;27.10;43.96;100688.91;5028492;28;20080;-73
2022/07/21 11:04:17;;;;;;;5.68;3.47;;;;;;;26.98;44.62;100698.44;5028421;28;20633;-72
2022/07/21 11:06:45;;;;;;;4.35;3.60;;;;;;;26.61;44.80;100657.31;5020760;28;20047;-75
2022/07/21 11:09:16;;;;;;;4.03;3.60;;;;;;;26.99;43.82;100702.00;5022712;28;20042;-75
2022/07/21 11:11:46;;;;;;;6.07;3.67;;;;;;;26.76;44.78;100710.78;5012739;28;20540;-73
2022/07/21 11:14:21;;;;;;;4.28;3.63;;;;;;;26.30;45.50;100705.97;5022579;28;20513;-72
2022/07/21 11:16:49;;;;;;;4.18;3.47;;;;;;;26.16;46.03;100697.44;5025585;28;20050;-74
2022/07/21 11:19:49;;;;;;;6.28;3.72;;;;;;;25.94;46.25;100670.06;5022326;28;20071;-74
2022/07/21 11:22:21;;;;;;;7.30;4.00;;;;;;;26.04;47.38;100698.75;5017035;28;20112;-72
2022/07/21 11:24:57;;;;;;;4.30;3.90;;;;;;;26.10;46.76;100691.81;5019515;28;20099;-73
2022/07/21 11:27:30;;;;;;;5.82;3.65;;;;;;;26.20;45.30;100682.53;5025269;28;20042;-73
2022/07/21 11:30:00;;;;;;;3.95;3.35;;;;;;;26.07;45.99;100690.28;5022608;28;20073;-73
2022/07/21 11:32:29;;;;;;;4.50;3.70;;;;;;;25.89;46.37;100667.84;5023599;28;20398;-71